Date,TemperatureHighF,TemperatureAvgF,TemperatureLowF,DewpointHighF,DewpointAvgF,DewpointLowF,HumidityHigh,HumidityAvg,HumidityLow,PressureMaxIn,PressureMinIn,WindSpeedMaxMPH,WindSpeedAvgMPH,GustSpeedMaxMPH,PrecipitationSumIn
2013-3-1,34,30,28,30,28,24,93,89,84,30.20,30.07,9,4,13,0.01
2013-3-2,33,29,23,24,20,17,87,71,56,30.27,30.20,10,4,15,0.01
2013-3-3,39,30,18,25,19,15,90,66,43,30.22,30.02,4,1,8,0.00
2013-3-4,52,43,36,40,32,26,79,65,50,30.02,29.73,12,3,16,0.01
2013-3-5,41,35,31,35,29,23,94,81,65,30.14,29.77,18,7,31,0.06
2013-3-6,38,32,27,25,23,22,84,70,58,30.37,30.14,11,5,19,0.00
2013-3-7,47,35,22,30,26,20,93,72,47,30.41,30.29,7,1,8,0.00
2013-3-8,54,43,31,33,30,27,86,64,41,30.40,30.16,9,3,12,0.00
2013-3-9,69,53,40,43,37,31,89,58,31,30.16,29.75,12,4,19,0.22
2013-3-10,58,53,46,53,49,43,95,87,56,29.75,29.59,7,2,14,0.91
2013-3-11,46,36,33,43,31,25,92,82,67,29.99,29.70,11,5,17,0.01
2013-3-12,50,38,29,28,25,23,84,63,40,30.20,29.97,18,5,26,0.00
2013-3-13,41,34,28,24,19,17,77,57,40,30.42,30.20,14,5,21,0.00
2013-3-14,55,40,29,34,26,20,79,59,38,30.39,30.07,7,2,14,0.00
2013-3-15,71,52,32,46,38,29,92,66,36,30.07,29.62,5,1,10,0.00
2013-3-16,66,48,39,48,40,35,90,74,47,30.03,29.60,9,3,19,0.06
2013-3-17,39,36,32,35,32,27,94,87,77,30.09,29.77,9,3,11,0.82
2013-3-18,51,41,36,37,33,23,96,77,43,30.01,29.68,14,4,23,0.02
2013-3-19,40,33,30,23,20,15,70,58,35,30.20,30.01,10,3,16,0.00
2013-3-30,48,48,47,46,46,46,93,93,93,29.91,29.89,2,0,4,0.11
2013-3-31,68,55,48,51,44,32,94,70,32,29.92,29.81,16,3,21,0.01